American Integrity — WDD2875 — position and weather

sailwx.info

Track history (hours):
 
Tides and Currents Weather Stations Pressure Air Temp Water Temp Dewpoint Dewpoint Depression Visibility Wind Speed Wind Dir Waves Ship Positions

American Integrity

Owner: American Steamship Company, Williamsville, NY. More information available from US FCC via Universal Licensing System and Coast Guard Vessel Documentation Center.

Last reported at 2015-Jul-06 15:33 UTC. Time now 2015-Jul-06 15:38 UTC.
Position N 46°59' W 091°22'.

; draft 8 m.

Type: Cargo ship. MMSI: 367120990.

Date/timePositionNaut miles runAvg speedWind from/ knotsBaromVisibWave heightAir tempDewpointWater temp
2015-Jul-06 15:33N 46°59' W 091°22'1710.8
2015-Jul-06 14:00N 47°06' W 091°00'27611.5
2015-Jul-05 14:05N 46°30' W 084°21'1 1.1
2015-Jul-05 13:33N 46°30' W 084°20'3 2.5
2015-Jul-05 12:33N 46°28' W 084°17'4 3.9
2015-Jul-05 11:33N 46°25' W 084°15'8 7.9
2015-Jul-05 10:32N 46°19' W 084°07'9 8.4
2015-Jul-05 09:28N 46°10' W 084°04'1010.5
2015-Jul-05 08:33N 46°03' W 083°56'1211.6
2015-Jul-05 07:33N 45°52' W 083°49'1312.7
2015-Jul-05 06:33N 45°44' W 083°34'1313.5
2015-Jul-05 05:33N 45°39' W 083°17'1313.3
2015-Jul-05 04:33N 45°33' W 082°60'19 0.4
2015-Jul-03 09:20N 45°36' W 083°26'1112.3
2015-Jul-03 08:28N 45°44' W 083°36'1112.4
2015-Jul-03 07:33N 45°52' W 083°48'1110.8
2015-Jul-03 06:33N 46°02' W 083°55'11 9.5
2015-Jul-03 05:24N 46°10' W 084°05'7 8.0
2015-Jul-03 04:33N 46°15' W 084°11'7 6.0
2015-Jul-03 03:28N 46°22' W 084°13'28910.4
2015-Jul-01 23:33N 47°08' W 091°10'1211.9
2015-Jul-01 22:33N 47°02' W 091°25'1212.0
2015-Jul-01 21:33N 46°56' W 091°40'1212.1
2015-Jul-01 20:32N 46°50' W 091°56'8 8.3
2015-Jul-01 19:33N 46°46' W 092°06'1 1.4
2015-Jul-01 18:32N 46°45' W 092°07'0 0.0
2015-Jul-01 16:33N 46°45' W 092°07'0 0.0
2015-Jul-01 13:28N 46°45' W 092°07'0 0.0
2015-Jul-01 12:34N 46°45' W 092°07'0 0.0
2015-Jul-01 11:33N 46°45' W 092°07'0 0.0
2015-Jul-01 10:33N 46°45' W 092°07'0 0.0
2015-Jul-01 09:33N 46°45' W 092°07'1 1.3
2015-Jul-01 08:33N 46°46' W 092°06'10 9.9
2015-Jul-01 07:33N 46°50' W 091°53'1413.5
2015-Jul-01 06:33N 46°55' W 091°35'1413.6
2015-Jul-01 05:33N 47°01' W 091°16'1413.4
2015-Jul-01 04:31N 47°06' W 090°57'25712.3
2015-Jun-30 07:33N 46°35' W 084°44'1212.0
2015-Jun-30 06:33N 46°27' W 084°31'22 3.5
2015-Jun-30 00:17N 46°13' W 084°07'910.2
2015-Jun-29 23:24N 46°05' W 084°01'910.3
2015-Jun-29 22:33N 45°58' W 083°53'1212.3
2015-Jun-29 21:33N 45°51' W 084°08'1313.0
2015-Jun-29 20:33N 45°51' W 084°27'1212.2
2015-Jun-29 19:33N 45°49' W 084°44'1313.2
2015-Jun-29 18:33N 45°50' W 085°03'1010.0
2015-Jun-29 17:33N 45°43' W 085°13'1313.1
2015-Jun-29 16:33N 45°32' W 085°24'1313.0
2015-Jun-29 15:33N 45°22' W 085°35'1313.1
2015-Jun-29 14:33N 45°11' W 085°46'1313.1
2015-Jun-29 13:33N 45°00' W 085°57'1313.1
2015-Jun-29 12:33N 44°54' W 086°13'1313.3
2015-Jun-29 11:33N 44°48' W 086°30'1313.0
2015-Jun-29 10:33N 44°42' W 086°46'1313.1
2015-Jun-29 09:33N 44°30' W 086°54'  
2015-Jun-27 05:33N 44°57' W 086°36'1412.3
2015-Jun-27 04:22N 45°10' W 086°27'1012.3
2015-Jun-27 03:33N 45°19' W 086°21'1212.3
2015-Jun-27 02:33N 45°30' W 086°14'1212.3
2015-Jun-27 01:33N 45°41' W 086°06'1212.3
2015-Jun-27 00:33N 45°47' W 085°51'1211.9
2015-Jun-26 23:33N 45°53' W 085°36'1211.6
2015-Jun-26 22:33N 45°53' W 085°19'1212.0
2015-Jun-26 21:33N 45°51' W 085°02'1212.1
2015-Jun-26 20:33N 45°49' W 084°45'1111.3
2015-Jun-26 19:33N 45°52' W 084°29'1212.2
2015-Jun-26 18:33N 45°53' W 084°12'1212.0
2015-Jun-26 17:33N 45°56' W 083°55'9 8.1
2015-Jun-26 16:28N 46°04' W 084°01'  
Track history (hours):
 
Tides and Currents Weather Stations Pressure Air Temp Water Temp Dewpoint Dewpoint Depression Visibility Wind Speed Wind Dir Waves Ship Positions

American Integrity

Owner: American Steamship Company, Williamsville, NY. More information available from US FCC via Universal Licensing System and Coast Guard Vessel Documentation Center.

Last reported at 2015-Jul-06 15:33 UTC. Time now 2015-Jul-06 15:38 UTC.
Position N 46°59' W 091°22'.

; draft 8 m.

Type: Cargo ship. MMSI: 367120990.

Date/timePositionNaut miles runAvg speedWind from/ knotsBaromVisibWave heightAir tempDewpointWater temp
2015-Jul-06 15:33N 46°59' W 091°22'1710.8
2015-Jul-06 14:00N 47°06' W 091°00'27611.5
2015-Jul-05 14:05N 46°30' W 084°21'1 1.1
2015-Jul-05 13:33N 46°30' W 084°20'3 2.5
2015-Jul-05 12:33N 46°28' W 084°17'4 3.9
2015-Jul-05 11:33N 46°25' W 084°15'8 7.9
2015-Jul-05 10:32N 46°19' W 084°07'9 8.4
2015-Jul-05 09:28N 46°10' W 084°04'1010.5
2015-Jul-05 08:33N 46°03' W 083°56'1211.6
2015-Jul-05 07:33N 45°52' W 083°49'1312.7
2015-Jul-05 06:33N 45°44' W 083°34'1313.5
2015-Jul-05 05:33N 45°39' W 083°17'1313.3
2015-Jul-05 04:33N 45°33' W 082°60'19 0.4
2015-Jul-03 09:20N 45°36' W 083°26'1112.3
2015-Jul-03 08:28N 45°44' W 083°36'1112.4
2015-Jul-03 07:33N 45°52' W 083°48'1110.8
2015-Jul-03 06:33N 46°02' W 083°55'11 9.5
2015-Jul-03 05:24N 46°10' W 084°05'7 8.0
2015-Jul-03 04:33N 46°15' W 084°11'7 6.0
2015-Jul-03 03:28N 46°22' W 084°13'28910.4
2015-Jul-01 23:33N 47°08' W 091°10'1211.9
2015-Jul-01 22:33N 47°02' W 091°25'1212.0
2015-Jul-01 21:33N 46°56' W 091°40'1212.1
2015-Jul-01 20:32N 46°50' W 091°56'8 8.3
2015-Jul-01 19:33N 46°46' W 092°06'1 1.4
2015-Jul-01 18:32N 46°45' W 092°07'0 0.0
2015-Jul-01 16:33N 46°45' W 092°07'0 0.0
2015-Jul-01 13:28N 46°45' W 092°07'0 0.0
2015-Jul-01 12:34N 46°45' W 092°07'0 0.0
2015-Jul-01 11:33N 46°45' W 092°07'0 0.0
2015-Jul-01 10:33N 46°45' W 092°07'0 0.0
2015-Jul-01 09:33N 46°45' W 092°07'1 1.3
2015-Jul-01 08:33N 46°46' W 092°06'10 9.9
2015-Jul-01 07:33N 46°50' W 091°53'1413.5
2015-Jul-01 06:33N 46°55' W 091°35'1413.6
2015-Jul-01 05:33N 47°01' W 091°16'1413.4
2015-Jul-01 04:31N 47°06' W 090°57'25712.3
2015-Jun-30 07:33N 46°35' W 084°44'1212.0
2015-Jun-30 06:33N 46°27' W 084°31'22 3.5
2015-Jun-30 00:17N 46°13' W 084°07'910.2
2015-Jun-29 23:24N 46°05' W 084°01'910.3
2015-Jun-29 22:33N 45°58' W 083°53'1212.3
2015-Jun-29 21:33N 45°51' W 084°08'1313.0
2015-Jun-29 20:33N 45°51' W 084°27'1212.2
2015-Jun-29 19:33N 45°49' W 084°44'1313.2
2015-Jun-29 18:33N 45°50' W 085°03'1010.0
2015-Jun-29 17:33N 45°43' W 085°13'1313.1
2015-Jun-29 16:33N 45°32' W 085°24'1313.0
2015-Jun-29 15:33N 45°22' W 085°35'1313.1
2015-Jun-29 14:33N 45°11' W 085°46'1313.1
2015-Jun-29 13:33N 45°00' W 085°57'1313.1
2015-Jun-29 12:33N 44°54' W 086°13'1313.3
2015-Jun-29 11:33N 44°48' W 086°30'1313.0
2015-Jun-29 10:33N 44°42' W 086°46'1313.1
2015-Jun-29 09:33N 44°30' W 086°54'  
2015-Jun-27 05:33N 44°57' W 086°36'1412.3
2015-Jun-27 04:22N 45°10' W 086°27'1012.3
2015-Jun-27 03:33N 45°19' W 086°21'1212.3
2015-Jun-27 02:33N 45°30' W 086°14'1212.3
2015-Jun-27 01:33N 45°41' W 086°06'1212.3
2015-Jun-27 00:33N 45°47' W 085°51'1211.9
2015-Jun-26 23:33N 45°53' W 085°36'1211.6
2015-Jun-26 22:33N 45°53' W 085°19'1212.0
2015-Jun-26 21:33N 45°51' W 085°02'1212.1
2015-Jun-26 20:33N 45°49' W 084°45'1111.3
2015-Jun-26 19:33N 45°52' W 084°29'1212.2
2015-Jun-26 18:33N 45°53' W 084°12'1212.0
2015-Jun-26 17:33N 45°56' W 083°55'9 8.1
2015-Jun-26 16:28N 46°04' W 084°01'  

Dump ship's entire track history